createdAt,value
2023-03-26T10:39:03.229Z,10.32
2023-03-26T10:40:13.771Z,10.29
2023-03-26T10:41:14.801Z,10.30
2023-03-26T10:42:14.766Z,10.30
2023-03-26T10:43:14.705Z,10.32
2023-03-26T10:44:14.791Z,10.27
2023-03-26T10:45:14.694Z,10.17
2023-03-26T10:46:14.761Z,10.17
2023-03-26T10:47:14.670Z,10.04
2023-03-26T10:48:14.708Z,9.97
2023-03-26T10:49:14.704Z,9.91
2023-03-26T10:50:16.959Z,9.91
2023-03-26T10:51:14.875Z,9.91
2023-03-26T10:52:14.649Z,9.94
2023-03-26T10:53:14.606Z,9.94
2023-03-26T10:54:14.599Z,9.96
2023-03-26T10:55:14.637Z,9.93
2023-03-26T10:56:14.606Z,9.90
2023-03-26T10:57:14.630Z,9.84
2023-03-26T10:58:14.624Z,9.86
2023-03-26T10:59:14.531Z,9.89
2023-03-26T11:00:14.571Z,9.93
2023-03-26T11:01:14.602Z,9.99
2023-03-26T11:02:14.545Z,10.02
2023-03-26T11:03:14.594Z,9.96
2023-03-26T11:04:14.513Z,9.94
2023-03-26T11:05:14.515Z,9.99
2023-03-26T11:06:14.491Z,10.05
2023-03-26T11:07:14.492Z,10.04
2023-03-26T11:08:14.450Z,10.04
2023-03-26T11:09:14.472Z,10.09
2023-03-26T11:10:14.430Z,10.17
2023-03-26T11:11:14.444Z,10.20
2023-03-26T11:12:25.751Z,10.12
2023-03-26T11:13:14.489Z,10.11
2023-03-26T11:14:24.369Z,10.11
2023-03-26T11:15:14.424Z,10.11
2023-03-26T11:16:14.433Z,10.14
2023-03-26T11:17:14.801Z,10.17
2023-03-26T11:18:14.388Z,10.18
2023-03-26T11:19:14.321Z,10.18
2023-03-26T11:20:14.353Z,10.18
2023-03-26T11:21:18.945Z,10.14
2023-03-26T11:22:14.343Z,10.11
2023-03-26T11:23:14.298Z,10.09
2023-03-26T11:24:14.282Z,10.04
2023-03-26T11:25:14.336Z,9.94
2023-03-26T11:26:14.289Z,9.93
2023-03-26T11:27:15.508Z,9.96
2023-03-26T11:28:14.235Z,9.96
2023-03-26T11:29:31.896Z,9.90
2023-03-26T11:30:14.225Z,9.84
2023-03-26T11:31:14.259Z,9.76
2023-03-26T11:32:14.260Z,9.61
2023-03-26T11:33:14.194Z,9.40
2023-03-26T11:34:14.236Z,9.15
2023-03-26T11:35:14.154Z,8.86
2023-03-26T11:36:14.173Z,8.65
2023-03-26T11:37:14.299Z,8.48
2023-03-26T11:38:14.139Z,8.40
2023-03-26T11:39:14.257Z,8.30
2023-03-26T11:40:14.123Z,8.19
2023-03-26T11:41:14.103Z,8.05
2023-03-26T11:42:14.100Z,7.97
2023-03-26T11:43:14.064Z,7.97
2023-03-26T11:44:14.072Z,7.85
2023-03-26T11:45:14.068Z,7.68
2023-03-26T11:46:14.079Z,7.57
2023-03-26T11:47:14.024Z,7.50
2023-03-26T11:48:14.010Z,7.37
2023-03-26T11:49:14.070Z,7.30
2023-03-26T11:50:14.008Z,7.23
2023-03-26T11:51:14.002Z,7.07
2023-03-26T11:52:13.979Z,7.02
2023-03-26T11:53:13.958Z,6.97
2023-03-26T11:54:13.949Z,6.91
2023-03-26T11:55:13.927Z,6.87
2023-03-26T11:56:13.945Z,6.89
2023-03-26T11:57:13.997Z,6.88
2023-03-26T11:58:13.904Z,6.84
2023-03-26T11:59:13.944Z,6.87
2023-03-26T12:00:13.883Z,6.88
2023-03-26T12:01:13.870Z,6.91
2023-03-26T12:02:13.875Z,6.91
2023-03-26T12:03:13.924Z,6.91
2023-03-26T12:04:13.931Z,6.88
2023-03-26T12:05:13.858Z,6.88
2023-03-26T12:06:13.821Z,6.88
2023-03-26T12:07:13.801Z,6.91
2023-03-26T12:08:13.830Z,6.92
2023-03-26T12:09:13.850Z,6.92
2023-03-26T12:10:17.967Z,6.88
2023-03-26T12:11:13.895Z,6.91
2023-03-26T12:12:13.808Z,6.88
2023-03-26T12:13:13.788Z,6.88
2023-03-26T12:14:13.745Z,6.87
2023-03-26T12:15:13.784Z,6.87
2023-03-26T12:16:13.816Z,6.85
2023-03-26T12:17:13.678Z,6.85
2023-03-26T12:18:13.737Z,6.74
2023-03-26T12:19:13.649Z,6.69
2023-03-26T12:20:13.754Z,6.69
2023-03-26T12:21:13.633Z,6.71
2023-03-26T12:22:13.637Z,6.74
2023-03-26T12:23:13.620Z,6.74
2023-03-26T12:24:13.611Z,6.81
2023-03-26T12:25:13.620Z,6.88
2023-03-26T12:26:13.604Z,6.92
2023-03-26T12:27:13.613Z,6.94
2023-03-26T12:28:13.698Z,6.98
2023-03-26T12:29:13.569Z,7.03
2023-03-26T12:30:13.613Z,7.10
2023-03-26T12:31:13.538Z,7.12
2023-03-26T12:32:13.559Z,7.07
2023-03-26T12:33:13.557Z,7.13
2023-03-26T12:34:13.492Z,7.20
2023-03-26T12:35:13.497Z,7.28
2023-03-26T12:36:13.473Z,7.37
2023-03-26T12:37:13.455Z,7.45
2023-03-26T12:38:13.527Z,7.49
2023-03-26T12:39:17.173Z,7.58
2023-03-26T12:40:17.120Z,7.64
2023-03-26T12:44:43.636Z,7.67
2023-03-26T12:44:59.544Z,7.74
2023-03-26T12:45:05.300Z,7.79
2023-03-26T12:47:56.027Z,7.77
2023-03-26T12:48:07.944Z,7.75
2023-03-26T12:48:13.494Z,7.74
2023-03-26T12:49:13.521Z,7.71
2023-03-26T12:50:13.407Z,7.71
2023-03-26T12:51:13.396Z,7.69
2023-03-26T12:52:13.417Z,7.72
2023-03-26T12:53:13.350Z,7.80
2023-03-26T12:54:13.337Z,7.85
2023-03-26T12:55:13.361Z,7.90
2023-03-26T12:56:13.359Z,7.90
2023-03-26T12:57:13.599Z,7.92
2023-03-26T12:58:14.193Z,7.86
2023-03-26T12:59:13.344Z,7.80
2023-03-26T13:00:13.317Z,7.82
2023-03-26T13:01:13.325Z,7.85
2023-03-26T13:02:13.297Z,7.77
2023-03-26T13:03:13.364Z,7.86
2023-03-26T13:04:13.244Z,7.89
2023-03-26T13:05:13.258Z,7.95
2023-03-26T13:06:13.214Z,7.97
2023-03-26T13:07:13.278Z,8.01
2023-03-26T13:08:13.200Z,8.08
2023-03-26T13:09:13.171Z,8.05
2023-03-26T13:10:13.180Z,7.90
2023-03-26T13:11:13.156Z,7.83
2023-03-26T13:12:13.136Z,7.82
2023-03-26T13:13:13.152Z,7.89
2023-03-26T13:14:13.148Z,7.93
2023-03-26T13:15:13.135Z,7.95
2023-03-26T13:16:13.163Z,7.97
2023-03-26T13:17:13.212Z,8.01
2023-03-26T13:18:13.077Z,8.00
2023-03-26T13:19:13.082Z,7.98
2023-03-26T13:20:13.072Z,7.92
2023-03-26T13:21:13.142Z,7.85
2023-03-26T13:22:13.045Z,7.86
2023-03-26T13:23:13.109Z,7.71
2023-03-26T13:24:12.999Z,7.67
2023-03-26T13:25:13.058Z,7.68
2023-03-26T13:26:13.022Z,7.74
2023-03-26T13:27:12.997Z,7.77
2023-03-26T13:28:13.013Z,7.85
2023-03-26T13:29:12.978Z,7.83
2023-03-26T13:30:12.991Z,7.86
2023-03-26T13:31:13.040Z,7.89
2023-03-26T13:32:12.932Z,8.00
2023-03-26T13:33:12.998Z,8.05
2023-03-26T13:34:12.898Z,8.08
2023-03-26T13:35:12.919Z,8.10
2023-03-26T13:36:23.343Z,8.10
2023-03-26T13:37:12.991Z,8.02
2023-03-26T13:38:12.872Z,7.90
2023-03-26T13:39:12.869Z,7.79
2023-03-26T13:40:12.908Z,7.61
2023-03-26T13:41:12.831Z,7.57
2023-03-26T13:42:12.836Z,7.60
2023-03-26T13:43:12.843Z,7.63
2023-03-26T13:44:12.806Z,7.67
2023-03-26T13:45:12.820Z,7.67
2023-03-26T13:46:12.854Z,7.58
2023-03-26T13:47:12.756Z,7.61
2023-03-26T13:48:12.764Z,7.68
2023-03-26T13:49:12.790Z,7.72
2023-03-26T13:50:12.744Z,7.77
2023-03-26T13:51:12.710Z,7.80
2023-03-26T13:52:12.760Z,7.85
2023-03-26T13:53:12.687Z,7.77
2023-03-26T13:54:12.683Z,7.79
2023-03-26T13:55:12.669Z,7.79
2023-03-26T13:56:12.656Z,7.80
2023-03-26T13:57:12.687Z,7.80
2023-03-26T13:58:12.666Z,7.80
2023-03-26T13:59:12.618Z,7.85
2023-03-26T14:00:12.610Z,7.85
2023-03-26T14:01:12.698Z,7.90
2023-03-26T14:02:12.588Z,7.95
2023-03-26T14:03:12.689Z,7.86
2023-03-26T14:04:12.666Z,7.85
2023-03-26T14:05:12.680Z,7.86
2023-03-26T14:06:12.547Z,7.90
2023-03-26T14:07:12.557Z,7.92
2023-03-26T14:08:12.603Z,7.93
2023-03-26T14:09:12.553Z,7.90
2023-03-26T14:10:12.536Z,7.86
2023-03-26T14:11:12.506Z,7.83
2023-03-26T14:12:21.129Z,7.83
2023-03-26T14:13:12.506Z,7.82
2023-03-26T14:14:12.467Z,7.77
2023-03-26T14:15:12.470Z,7.80
2023-03-26T14:16:12.556Z,7.85
2023-03-26T14:17:12.430Z,7.83
2023-03-26T14:18:12.417Z,7.86
2023-03-26T14:19:12.446Z,7.80
2023-03-26T14:20:12.460Z,7.82
2023-03-26T14:21:12.394Z,7.85
2023-03-26T14:22:12.399Z,7.77
2023-03-26T14:23:12.536Z,7.75
2023-03-26T14:24:12.576Z,7.79
2023-03-26T14:25:12.343Z,7.79
2023-03-26T14:26:12.352Z,7.77
2023-03-26T14:27:12.428Z,7.82
2023-03-26T14:28:12.329Z,7.77
2023-03-26T14:29:12.290Z,7.72
2023-03-26T14:30:12.294Z,7.77
2023-03-26T14:31:12.391Z,7.80
2023-03-26T14:32:12.338Z,7.86
2023-03-26T14:33:12.251Z,7.90
2023-03-26T14:34:12.281Z,7.93
2023-03-26T14:35:12.263Z,7.90
2023-03-26T14:36:12.287Z,7.95
2023-03-26T14:37:12.213Z,7.98
2023-03-26T14:38:12.225Z,7.95
2023-03-26T14:39:12.581Z,8.00
2023-03-26T14:40:12.232Z,8.01
2023-03-26T14:41:12.305Z,7.93
2023-03-26T14:42:12.172Z,7.92
2023-03-26T14:43:12.143Z,7.90
2023-03-26T14:44:12.172Z,7.87
2023-03-26T14:45:12.151Z,7.79
2023-03-26T14:46:12.154Z,7.77
2023-03-26T14:47:14.461Z,7.75
2023-03-26T14:48:12.234Z,7.75
2023-03-26T14:49:12.331Z,7.77
2023-03-26T14:50:12.245Z,7.82
2023-03-26T14:51:12.067Z,7.89
2023-03-26T14:52:12.032Z,7.93
2023-03-26T14:53:12.218Z,7.93
2023-03-26T14:54:12.026Z,8.01
2023-03-26T14:55:12.028Z,8.02
2023-03-26T14:56:14.391Z,8.04
2023-03-26T14:57:12.175Z,8.08
2023-03-26T14:58:12.025Z,8.10
2023-03-26T14:59:12.017Z,8.07
2023-03-26T15:00:11.990Z,8.10
2023-03-26T15:01:11.964Z,8.12
2023-03-26T15:02:12.037Z,8.01
2023-03-26T15:03:11.951Z,7.97
2023-03-26T15:04:11.911Z,7.92
2023-03-26T15:05:11.900Z,7.93
2023-03-26T15:06:11.937Z,7.92
2023-03-26T15:07:11.910Z,7.93
2023-03-26T15:08:11.880Z,7.89
2023-03-26T15:09:11.863Z,7.87
2023-03-26T15:10:11.856Z,7.82
2023-03-26T15:11:11.872Z,7.82
2023-03-26T15:12:13.598Z,7.79
2023-03-26T15:13:11.846Z,7.79
2023-03-26T15:14:11.948Z,7.83
2023-03-26T15:15:11.825Z,7.77
2023-03-26T15:16:11.831Z,7.75
2023-03-26T15:17:11.787Z,7.69
2023-03-26T15:18:11.827Z,7.69
2023-03-26T15:19:11.891Z,7.71
2023-03-26T15:20:11.803Z,7.67
2023-03-26T15:21:11.789Z,7.60
2023-03-26T15:22:11.710Z,7.55
2023-03-26T15:23:11.700Z,7.57
2023-03-26T15:24:11.695Z,7.52
2023-03-26T15:25:11.696Z,7.48
2023-03-26T15:26:11.688Z,7.49
2023-03-26T15:27:11.683Z,7.49
2023-03-26T15:28:11.632Z,7.46
2023-03-26T15:29:11.709Z,7.39
2023-03-26T15:30:11.634Z,7.34
2023-03-26T15:31:11.607Z,7.31
2023-03-26T15:32:11.596Z,7.30
2023-03-26T15:33:11.625Z,7.30
2023-03-26T15:34:11.586Z,7.28
2023-03-26T15:35:11.584Z,7.28
2023-03-26T15:36:11.608Z,7.25
2023-03-26T15:37:11.570Z,7.25
2023-03-26T15:38:11.546Z,7.24
2023-03-26T15:39:11.535Z,7.23
2023-03-26T15:40:11.617Z,7.25
2023-03-26T15:41:11.576Z,7.23
2023-03-26T15:42:11.486Z,7.23
2023-03-26T15:43:11.510Z,7.24
2023-03-26T15:44:24.453Z,7.21
2023-03-26T15:45:11.498Z,7.23
2023-03-26T15:46:11.519Z,7.17
2023-03-26T15:47:11.451Z,7.21
2023-03-26T15:48:11.971Z,7.15
2023-03-26T15:49:11.417Z,7.16
2023-03-26T15:50:11.433Z,7.16
2023-03-26T15:51:11.419Z,7.16
2023-03-26T15:52:11.383Z,7.17
2023-03-26T15:53:11.373Z,7.16
2023-03-26T15:54:11.354Z,7.16
2023-03-26T15:55:11.355Z,7.16
2023-03-26T15:56:11.372Z,7.16
2023-03-26T15:57:11.381Z,7.15
2023-03-26T15:58:11.324Z,7.15
2023-03-26T15:59:11.300Z,7.15
2023-03-26T16:00:11.372Z,7.15
2023-03-26T16:01:11.316Z,7.16
2023-03-26T16:02:11.284Z,7.16
2023-03-26T16:03:11.289Z,7.17
2023-03-26T16:04:11.236Z,7.15
2023-03-26T16:05:11.282Z,7.17
2023-03-26T16:06:11.234Z,7.12
2023-03-26T16:07:11.219Z,7.12
2023-03-26T16:08:11.229Z,7.09
2023-03-26T16:09:11.235Z,7.07
2023-03-26T16:10:11.180Z,7.05
2023-03-26T16:11:11.195Z,7.05
2023-03-26T16:12:11.155Z,6.97
2023-03-26T16:13:11.230Z,6.92
2023-03-26T16:14:11.216Z,6.84
2023-03-26T16:15:11.232Z,6.81
2023-03-26T16:16:11.472Z,6.74
2023-03-26T16:17:11.111Z,6.71
2023-03-26T16:18:11.136Z,6.66
2023-03-26T16:19:11.111Z,6.62
2023-03-26T16:20:11.119Z,6.59
2023-03-26T16:21:11.169Z,6.55
2023-03-26T16:22:11.089Z,6.49
2023-03-26T16:23:11.100Z,6.48
2023-03-26T16:24:11.076Z,6.44
2023-03-26T16:25:27.128Z,6.43
2023-03-26T16:26:11.173Z,6.40
2023-03-26T16:27:11.038Z,6.37
2023-03-26T16:28:10.997Z,6.38
2023-03-26T16:29:11.040Z,6.38
2023-03-26T16:30:11.089Z,6.38
2023-03-26T16:31:37.196Z,6.36
2023-03-26T16:32:11.275Z,6.37
2023-03-26T16:33:10.988Z,6.37
2023-03-26T16:34:11.051Z,6.38
2023-03-26T16:35:11.020Z,6.38
2023-03-26T16:36:10.945Z,6.36
2023-03-26T16:37:10.913Z,6.38
2023-03-26T16:38:10.906Z,6.38
2023-03-26T16:39:10.933Z,6.38
2023-03-26T16:40:10.874Z,6.38
2023-03-26T16:41:10.883Z,6.36
2023-03-26T16:42:10.816Z,6.34
2023-03-26T16:43:10.941Z,6.31
2023-03-26T16:44:10.833Z,6.30
2023-03-26T16:45:11.042Z,6.28
2023-03-26T16:46:11.020Z,6.28
2023-03-26T16:47:10.842Z,6.28
2023-03-26T16:48:10.855Z,6.27
2023-03-26T16:49:10.902Z,6.27
2023-03-26T16:50:10.818Z,6.28
2023-03-26T16:51:10.772Z,6.27
2023-03-26T16:52:10.727Z,6.27
2023-03-26T16:53:10.938Z,6.21
2023-03-26T16:54:10.740Z,6.19
2023-03-26T16:55:10.702Z,6.21
2023-03-26T16:56:10.706Z,6.19
2023-03-26T16:57:10.760Z,6.22
2023-03-26T16:58:10.723Z,6.22
2023-03-26T16:59:10.628Z,6.19
2023-03-26T17:00:10.638Z,6.19
2023-03-26T17:01:10.607Z,6.18
2023-03-26T17:02:10.692Z,6.15
2023-03-26T17:03:10.706Z,6.14
2023-03-26T17:04:10.581Z,6.11
2023-03-26T17:05:10.569Z,6.09
2023-03-26T17:06:10.574Z,6.09
2023-03-26T17:07:10.582Z,6.04
2023-03-26T17:08:10.558Z,6.04
2023-03-26T17:09:11.610Z,6.03
2023-03-26T17:10:10.574Z,6.01
2023-03-26T17:11:10.516Z,6.03
2023-03-26T17:12:10.641Z,6.03
2023-03-26T17:13:10.617Z,6.03
2023-03-26T17:14:10.483Z,6.04
2023-03-26T17:15:10.522Z,6.06
2023-03-26T17:16:10.549Z,6.04
2023-03-26T17:17:10.474Z,6.08
2023-03-26T17:18:10.482Z,6.08
2023-03-26T17:19:10.425Z,6.04
2023-03-26T17:20:10.412Z,6.04
2023-03-26T17:21:10.434Z,6.03
2023-03-26T17:22:10.381Z,6.03
2023-03-26T17:23:10.454Z,6.00
2023-03-26T17:24:15.585Z,5.99
2023-03-26T17:25:10.342Z,5.97
2023-03-26T17:26:10.396Z,5.94
2023-03-26T17:27:10.340Z,5.91
2023-03-26T17:28:10.326Z,5.90
2023-03-26T17:29:10.313Z,5.89
2023-03-26T17:30:10.295Z,5.82
2023-03-26T17:31:10.403Z,5.85
2023-03-26T17:32:10.370Z,5.82
2023-03-26T17:33:10.279Z,5.81
2023-03-26T17:34:10.274Z,5.79
2023-03-26T17:35:11.144Z,5.79
2023-03-26T17:36:10.237Z,5.79
2023-03-26T17:37:10.245Z,5.78
2023-03-26T17:38:10.239Z,5.78
2023-03-26T17:39:10.275Z,5.74
2023-03-26T17:40:10.187Z,5.71
2023-03-26T17:41:10.175Z,5.67
2023-03-26T17:42:10.165Z,5.65
2023-03-26T17:43:10.189Z,5.64
2023-03-26T17:44:10.140Z,5.61
2023-03-26T17:45:10.172Z,5.58
2023-03-26T17:46:10.163Z,5.58
2023-03-26T17:47:10.119Z,5.56
2023-03-26T17:48:10.117Z,5.56
2023-03-26T17:49:10.116Z,5.57
2023-03-26T17:50:10.072Z,5.57
2023-03-26T17:51:10.118Z,5.57
2023-03-26T17:52:10.116Z,5.54
2023-03-26T17:53:10.058Z,5.56
2023-03-26T17:54:10.027Z,5.54
2023-03-26T17:55:10.124Z,5.51
2023-03-26T17:56:10.014Z,5.46
2023-03-26T17:57:10.160Z,5.45
2023-03-26T17:58:10.025Z,5.46
2023-03-26T17:59:11.602Z,5.49
2023-03-26T18:00:09.965Z,5.46
2023-03-26T18:01:10.073Z,5.45
2023-03-26T18:02:09.969Z,5.42
2023-03-26T18:03:10.006Z,5.40
2023-03-26T18:04:09.980Z,5.39
2023-03-26T18:05:09.945Z,5.39
2023-03-26T18:06:09.909Z,5.38
2023-03-26T18:07:09.944Z,5.36
2023-03-26T18:08:09.928Z,5.33
2023-03-26T18:09:11.272Z,5.33
2023-03-26T18:10:09.860Z,5.31
2023-03-26T18:11:09.869Z,5.31
2023-03-26T18:12:09.891Z,5.27
2023-03-26T18:13:09.916Z,5.27
2023-03-26T18:14:09.915Z,5.25
2023-03-26T18:15:09.868Z,5.22
2023-03-26T18:16:09.917Z,5.21
2023-03-26T18:17:09.792Z,5.20
2023-03-26T18:18:09.864Z,5.17
2023-03-26T18:19:09.824Z,5.13
2023-03-26T18:20:09.828Z,5.13
2023-03-26T18:21:09.827Z,5.10
2023-03-26T18:22:09.802Z,5.12
2023-03-26T18:23:09.817Z,5.06
2023-03-26T18:24:09.803Z,5.03
2023-03-26T18:25:09.768Z,5.00
2023-03-26T18:26:09.748Z,5.00
2023-03-26T18:27:12.017Z,5.02
2023-03-26T18:28:09.736Z,5.02
2023-03-26T18:29:09.708Z,5.02
2023-03-26T18:30:09.729Z,5.03
2023-03-26T18:31:09.710Z,4.99
2023-03-26T18:32:09.824Z,4.97
2023-03-26T18:33:09.888Z,4.97
2023-03-26T18:34:09.890Z,4.96
2023-03-26T18:35:09.840Z,4.97
2023-03-26T18:36:09.783Z,4.97
2023-03-26T18:37:09.696Z,4.97
2023-03-26T18:38:09.676Z,4.97
2023-03-26T18:39:09.650Z,4.97
2023-03-26T18:40:09.632Z,4.96
2023-03-26T18:41:09.598Z,4.97
2023-03-26T18:42:09.594Z,4.94
2023-03-26T18:43:09.580Z,4.96
2023-03-26T18:44:09.573Z,5.02
2023-03-26T18:45:09.574Z,5.02
2023-03-26T18:46:09.604Z,5.02
2023-03-26T18:47:09.601Z,4.99
2023-03-26T18:48:09.623Z,5.02
2023-03-26T18:49:09.616Z,5.03
2023-03-26T18:50:09.540Z,5.00
2023-03-26T18:51:09.484Z,4.97
2023-03-26T18:52:09.474Z,4.96
2023-03-26T18:53:09.496Z,4.97
2023-03-26T18:54:09.471Z,4.96
2023-03-26T18:55:09.443Z,4.92
2023-03-26T18:56:09.499Z,4.89
2023-03-26T18:57:16.156Z,4.86
2023-03-26T18:58:09.448Z,4.86
2023-03-26T18:59:09.398Z,4.88
2023-03-26T19:00:09.411Z,4.85
2023-03-26T19:01:20.169Z,4.85
2023-03-26T19:02:09.451Z,4.84
2023-03-26T19:03:09.477Z,4.84
2023-03-26T19:04:09.350Z,4.85
2023-03-26T19:05:09.370Z,4.80
2023-03-26T19:06:09.327Z,4.80
2023-03-26T19:07:09.308Z,4.73
2023-03-26T19:08:09.301Z,4.75
2023-03-26T19:09:19.556Z,4.72
2023-03-26T19:10:09.327Z,4.73
2023-03-26T19:11:09.353Z,4.72
2023-03-26T19:12:09.283Z,4.69
2023-03-26T19:13:09.361Z,4.66
2023-03-26T19:14:09.255Z,4.66
2023-03-26T19:15:09.241Z,4.65
2023-03-26T19:16:09.229Z,4.63
2023-03-26T19:17:09.295Z,4.60
2023-03-26T19:18:09.221Z,4.58
2023-03-26T19:19:09.204Z,4.54
2023-03-26T19:20:09.187Z,4.52
2023-03-26T19:21:09.185Z,4.50
2023-03-26T19:22:09.164Z,4.50
2023-03-26T19:23:09.148Z,4.45
2023-03-26T19:24:09.138Z,4.42
2023-03-26T19:25:09.174Z,4.42
2023-03-26T19:26:09.114Z,4.40
2023-03-26T19:27:09.129Z,4.33
2023-03-26T19:28:09.073Z,4.29
2023-03-26T19:29:09.075Z,4.27
2023-03-26T19:30:09.078Z,4.29
2023-03-26T19:31:09.084Z,4.24
2023-03-26T19:32:09.530Z,4.22
2023-03-26T19:33:12.675Z,4.23
2023-03-26T19:34:09.012Z,4.22
2023-03-26T19:35:09.002Z,4.20
2023-03-26T19:36:09.013Z,4.18
2023-03-26T19:37:08.986Z,4.15
2023-03-26T19:38:08.988Z,4.14
2023-03-26T19:39:08.980Z,4.14
2023-03-26T19:40:08.961Z,4.12
2023-03-26T19:41:08.927Z,4.06
2023-03-26T19:42:08.962Z,4.08
2023-03-26T19:43:08.916Z,4.04
2023-03-26T19:44:08.924Z,4.05
2023-03-26T19:45:08.918Z,4.04
2023-03-26T19:46:08.928Z,4.04
2023-03-26T19:47:08.930Z,4.02
2023-03-26T19:48:15.506Z,3.98
2023-03-26T19:49:08.871Z,4.00
2023-03-26T19:50:08.853Z,3.96
2023-03-26T19:51:08.829Z,3.96
2023-03-26T19:52:08.814Z,3.96
2023-03-26T19:53:16.181Z,3.96
2023-03-26T19:54:08.811Z,3.90
2023-03-26T19:55:08.793Z,3.90
2023-03-26T19:56:08.795Z,3.87
2023-03-26T19:57:08.793Z,3.84
2023-03-26T19:58:08.739Z,3.80
2023-03-26T19:59:08.752Z,3.83
2023-03-26T20:00:08.734Z,3.80
2023-03-26T20:01:08.701Z,3.75
2023-03-26T20:02:08.731Z,3.75
2023-03-26T20:03:08.798Z,3.75
2023-03-26T20:04:08.686Z,3.72
2023-03-26T20:05:08.667Z,3.66
2023-03-26T20:06:08.664Z,3.62
2023-03-26T20:07:08.637Z,3.58
2023-03-26T20:08:08.899Z,3.54
2023-03-26T20:09:08.663Z,3.54
2023-03-26T20:10:08.631Z,3.50
2023-03-26T20:11:08.619Z,3.45
2023-03-26T20:12:08.601Z,3.43
2023-03-26T20:13:08.591Z,3.43
2023-03-26T20:14:08.586Z,3.39
2023-03-26T20:15:08.595Z,3.42
2023-03-26T20:16:08.640Z,3.35
2023-03-26T20:17:08.556Z,3.33
2023-03-26T20:18:08.699Z,3.29
2023-03-26T20:19:09.455Z,3.26
2023-03-26T20:20:08.539Z,3.23
2023-03-26T20:21:08.479Z,3.21
2023-03-26T20:22:08.645Z,3.20
2023-03-26T20:23:08.462Z,3.17
2023-03-26T20:24:08.455Z,3.17
2023-03-26T20:25:08.427Z,3.17
2023-03-26T20:26:08.427Z,3.17
2023-03-26T20:27:08.416Z,3.18
2023-03-26T20:28:08.394Z,3.15
2023-03-26T20:29:08.383Z,3.11
2023-03-26T20:30:09.228Z,3.13
2023-03-26T20:31:08.453Z,3.11
2023-03-26T20:32:08.401Z,3.11
2023-03-26T20:33:12.342Z,3.06
2023-03-26T20:34:08.415Z,3.06
2023-03-26T20:35:09.498Z,3.05
2023-03-26T20:36:08.361Z,2.99
2023-03-26T20:37:08.305Z,2.99
2023-03-26T20:38:08.439Z,2.96
2023-03-26T20:39:08.533Z,2.97
2023-03-26T20:40:08.308Z,2.95
2023-03-26T20:41:08.333Z,2.93
2023-03-26T20:42:08.254Z,2.93
2023-03-26T20:43:08.293Z,2.93
2023-03-26T20:44:08.242Z,2.92
2023-03-26T20:45:08.307Z,2.90
2023-03-26T20:46:08.327Z,2.89
2023-03-26T20:47:08.342Z,2.85
2023-03-26T20:48:08.339Z,2.87
2023-03-26T20:49:08.220Z,2.87
2023-03-26T20:50:08.244Z,2.84
2023-03-26T20:51:08.308Z,2.79
2023-03-26T20:52:08.214Z,2.78
2023-03-26T20:53:08.200Z,2.74
2023-03-26T20:54:08.233Z,2.67
2023-03-26T20:55:08.304Z,2.69
2023-03-26T20:56:08.448Z,2.67
2023-03-26T20:57:08.289Z,2.63
2023-03-26T20:58:08.175Z,2.63
2023-03-26T20:59:11.453Z,2.60
2023-03-26T21:00:08.116Z,2.57
2023-03-26T21:01:08.308Z,2.59
2023-03-26T21:02:08.306Z,2.57
2023-03-26T21:03:08.307Z,2.57
2023-03-26T21:04:08.268Z,2.53
2023-03-26T21:05:07.989Z,2.52
2023-03-26T21:06:08.222Z,2.52
2023-03-26T21:07:17.635Z,2.49
2023-03-26T21:08:07.989Z,2.48
2023-03-26T21:09:07.959Z,2.45
2023-03-26T21:10:07.974Z,2.45
2023-03-26T21:11:07.955Z,2.41
2023-03-26T21:12:07.939Z,2.42
2023-03-26T21:13:07.906Z,2.41
2023-03-26T21:14:07.901Z,2.41
2023-03-26T21:15:16.653Z,2.43
2023-03-26T21:16:08.042Z,2.45
2023-03-26T21:17:07.858Z,2.43
2023-03-26T21:18:07.899Z,2.42
2023-03-26T21:19:07.937Z,2.41
2023-03-26T21:20:07.859Z,2.42
2023-03-26T21:21:18.127Z,2.39
2023-03-26T21:22:07.961Z,2.36
2023-03-26T21:23:07.857Z,2.34
2023-03-26T21:24:07.801Z,2.35
2023-03-26T21:25:07.793Z,2.36
2023-03-26T21:26:07.798Z,2.31
2023-03-26T21:27:07.839Z,2.30
2023-03-26T21:28:07.818Z,2.27
2023-03-26T21:29:07.771Z,2.25
2023-03-26T21:30:07.747Z,2.28
2023-03-26T21:31:07.854Z,2.28
2023-03-26T21:32:07.745Z,2.27
2023-03-26T21:33:07.905Z,2.23
2023-03-26T21:34:07.743Z,2.24
2023-03-26T21:35:07.826Z,2.20
2023-03-26T21:36:07.825Z,2.18
2023-03-26T21:37:07.675Z,2.17
2023-03-26T21:38:07.674Z,2.16
2023-03-26T21:39:07.714Z,2.14
2023-03-26T21:40:07.667Z,2.12
2023-03-26T21:41:07.647Z,2.16
2023-03-26T21:42:07.614Z,2.16
2023-03-26T21:43:07.628Z,2.16
2023-03-26T21:44:07.618Z,2.20
2023-03-26T21:45:07.596Z,2.18
2023-03-26T21:46:07.610Z,2.18
2023-03-26T21:47:09.493Z,2.12
2023-03-26T21:48:07.636Z,2.12
2023-03-26T21:49:07.531Z,2.09
2023-03-26T21:50:07.589Z,2.10
2023-03-26T21:51:07.537Z,2.10
2023-03-26T21:52:07.627Z,2.12
2023-03-26T21:53:07.512Z,2.10
2023-03-26T21:54:07.478Z,2.07
2023-03-26T21:55:07.473Z,2.09
2023-03-26T21:56:07.492Z,2.07
2023-03-26T21:57:07.512Z,2.09
2023-03-26T21:58:07.466Z,2.09
2023-03-26T21:59:07.531Z,2.09
2023-03-26T22:00:07.427Z,2.14
2023-03-26T22:01:07.479Z,2.12
2023-03-26T22:02:07.428Z,2.09
2023-03-26T22:03:07.537Z,2.09
2023-03-26T22:04:07.408Z,2.06
2023-03-26T22:05:07.400Z,2.02
2023-03-26T22:06:07.404Z,2.00
2023-03-26T22:07:07.359Z,1.98
2023-03-26T22:08:07.363Z,1.99
2023-03-26T22:09:07.386Z,2.02
2023-03-26T22:10:07.320Z,2.02
2023-03-26T22:11:07.313Z,2.05
2023-03-26T22:12:07.321Z,2.05
2023-03-26T22:13:07.404Z,2.06
2023-03-26T22:14:07.309Z,2.05
2023-03-26T22:15:07.302Z,2.03
2023-03-26T22:16:07.339Z,2.00
2023-03-26T22:17:07.237Z,2.00
2023-03-26T22:18:07.360Z,1.95
2023-03-26T22:19:07.228Z,1.98
2023-03-26T22:20:07.233Z,2.02
2023-03-26T22:21:07.228Z,2.05
2023-03-26T22:22:07.257Z,2.06
2023-03-26T22:23:07.193Z,2.07
2023-03-26T22:24:07.246Z,2.09
2023-03-26T22:25:07.174Z,2.10
2023-03-26T22:26:07.246Z,2.09
2023-03-26T22:27:07.200Z,2.07
2023-03-26T22:28:07.158Z,2.06
2023-03-26T22:29:07.142Z,2.12
2023-03-26T22:30:07.156Z,2.16
2023-03-26T22:31:07.312Z,2.16
2023-03-26T22:32:07.094Z,2.18
2023-03-26T22:33:07.114Z,2.18
2023-03-26T22:34:07.104Z,2.18
2023-03-26T22:35:07.078Z,2.21
2023-03-26T22:36:22.466Z,2.21
2023-03-26T22:37:07.057Z,2.18
2023-03-26T22:38:07.524Z,2.20
2023-03-26T22:39:07.092Z,2.18
2023-03-26T22:40:07.019Z,2.23
2023-03-26T22:41:07.051Z,2.23
2023-03-26T22:42:06.994Z,2.24
2023-03-26T22:43:06.990Z,2.25
2023-03-26T22:44:19.232Z,2.27
2023-03-26T22:45:06.973Z,2.30
2023-03-26T22:46:06.980Z,2.34
2023-03-26T22:47:06.936Z,2.34
2023-03-26T22:48:07.097Z,2.35
2023-03-26T22:49:06.926Z,2.35
2023-03-26T22:50:06.924Z,2.34
2023-03-26T22:51:06.925Z,2.34
2023-03-26T22:52:06.897Z,2.28
2023-03-26T22:53:06.877Z,2.27
2023-03-26T22:54:06.873Z,2.25
2023-03-26T22:55:06.860Z,2.27
2023-03-26T22:56:06.892Z,2.28
2023-03-26T22:57:06.921Z,2.24
2023-03-26T22:58:06.834Z,2.20
2023-03-26T22:59:06.841Z,2.20
2023-03-26T23:00:06.805Z,2.18
2023-03-26T23:01:07.977Z,2.18
2023-03-26T23:02:06.856Z,2.18
2023-03-26T23:03:06.808Z,2.18
2023-03-26T23:04:06.851Z,2.16
2023-03-26T23:05:06.752Z,2.14
2023-03-26T23:06:06.843Z,2.14
2023-03-26T23:07:06.738Z,2.09
2023-03-26T23:08:06.751Z,2.10
2023-03-26T23:09:06.753Z,2.10
2023-03-26T23:10:06.718Z,2.12
2023-03-26T23:11:06.737Z,2.10
2023-03-26T23:12:06.704Z,2.09
2023-03-26T23:13:06.688Z,2.09
2023-03-26T23:14:06.663Z,2.06
2023-03-26T23:15:06.658Z,2.07
2023-03-26T23:16:06.693Z,2.14
2023-03-26T23:17:06.627Z,2.16
2023-03-26T23:18:06.673Z,2.14
2023-03-26T23:19:06.625Z,2.17
2023-03-26T23:20:06.602Z,2.20
2023-03-26T23:21:12.073Z,2.18
2023-03-26T23:22:06.580Z,2.20
2023-03-26T23:23:06.573Z,2.17
2023-03-26T23:24:06.577Z,2.17
2023-03-26T23:25:06.587Z,2.12
2023-03-26T23:26:06.557Z,2.10
2023-03-26T23:27:06.559Z,2.12
2023-03-26T23:28:06.546Z,2.12
2023-03-26T23:29:06.547Z,2.14
2023-03-26T23:30:06.494Z,2.12
2023-03-26T23:31:06.498Z,2.10
2023-03-26T23:32:24.073Z,2.12
2023-03-26T23:33:06.528Z,2.06
2023-03-26T23:34:06.492Z,2.06
2023-03-26T23:35:06.444Z,2.03
2023-03-26T23:36:07.619Z,2.02
2023-03-26T23:37:06.422Z,2.00
2023-03-26T23:38:06.419Z,1.98
2023-03-26T23:39:06.499Z,1.98
2023-03-26T23:40:06.388Z,1.93
2023-03-26T23:41:06.436Z,1.91
2023-03-26T23:42:06.365Z,1.90
2023-03-26T23:43:06.362Z,1.86
2023-03-26T23:44:06.365Z,1.83
2023-03-26T23:45:06.370Z,1.86
2023-03-26T23:46:06.370Z,1.84
2023-03-26T23:47:06.317Z,1.84
2023-03-26T23:48:06.352Z,1.84
2023-03-26T23:49:06.294Z,1.81
2023-03-26T23:50:06.316Z,1.79
2023-03-26T23:51:06.302Z,1.77
2023-03-26T23:52:06.318Z,1.73
2023-03-26T23:53:06.268Z,1.68
2023-03-26T23:54:06.244Z,1.65
2023-03-26T23:55:06.267Z,1.60
2023-03-26T23:56:06.222Z,1.58
2023-03-26T23:57:06.256Z,1.55
2023-03-26T23:58:06.211Z,1.51